createdAt,value
2022-10-21T00:01:16.090Z,95574.00
2022-10-21T00:05:19.054Z,95575.00
2022-10-21T00:09:21.772Z,95577.00
2022-10-21T00:13:27.002Z,95568.00
2022-10-21T00:17:29.717Z,95565.00
2022-10-21T00:21:32.419Z,95559.00
2022-10-21T00:25:35.160Z,95574.00
2022-10-21T00:29:39.187Z,95573.00
2022-10-21T00:33:42.556Z,95558.00
2022-10-21T00:37:45.302Z,95567.00
2022-10-21T00:41:48.010Z,95555.00
2022-10-21T00:45:56.599Z,95571.00
2022-10-21T00:50:02.215Z,95558.00
2022-10-21T00:54:06.703Z,95561.00
2022-10-21T00:58:09.483Z,95558.00
2022-10-21T01:02:13.718Z,95567.00
2022-10-21T01:06:17.273Z,95563.00
2022-10-21T01:10:20.028Z,95561.00
2022-10-21T01:14:41.240Z,95559.00
2022-10-21T01:18:53.071Z,95547.00
2022-10-21T01:23:35.201Z,95546.00
2022-10-21T01:27:49.178Z,95555.00
2022-10-21T01:31:59.133Z,95552.00
2022-10-21T01:36:10.902Z,95542.00
2022-10-21T01:40:19.299Z,95535.00
2022-10-21T01:44:25.422Z,95529.00
2022-10-21T01:48:33.767Z,95525.00
2022-10-21T01:52:36.832Z,95514.00
2022-10-21T01:56:42.062Z,95503.00
2022-10-21T02:00:45.897Z,95505.00
2022-10-21T02:04:51.935Z,95495.00
2022-10-21T02:08:54.789Z,95508.00
2022-10-21T02:13:01.130Z,95504.00
2022-10-21T02:17:05.228Z,95499.00
2022-10-21T02:21:12.898Z,95485.00
2022-10-21T02:25:19.502Z,95486.00
2022-10-21T02:29:25.187Z,95475.00
2022-10-21T02:33:34.004Z,95471.00
2022-10-21T02:37:44.530Z,95481.00
2022-10-21T02:41:49.504Z,95453.00
2022-10-21T02:45:55.477Z,95463.00
2022-10-21T02:49:58.161Z,95461.00
2022-10-21T02:54:02.270Z,95444.00
2022-10-21T02:58:04.950Z,95453.00
2022-10-21T03:02:07.659Z,95452.00
2022-10-21T03:06:10.385Z,95442.00
2022-10-21T03:10:14.494Z,95449.00
2022-10-21T03:14:17.292Z,95458.00
2022-10-21T03:18:20.486Z,95454.00
2022-10-21T03:22:23.258Z,95440.00
2022-10-21T03:26:27.342Z,95433.00
2022-10-21T03:30:30.019Z,95431.00
2022-10-21T03:34:32.798Z,95426.00
2022-10-21T03:38:35.727Z,95421.00
2022-10-21T03:42:40.257Z,95426.00
2022-10-21T03:46:43.463Z,95435.00
2022-10-21T03:50:46.163Z,95418.00
2022-10-21T03:54:48.854Z,95410.00
2022-10-21T03:58:57.700Z,95392.00
2022-10-21T04:03:01.318Z,95383.00
2022-10-21T04:07:04.030Z,95382.00
2022-10-21T04:11:06.886Z,95384.00
2022-10-21T04:15:13.687Z,95375.00
2022-10-21T04:19:19.498Z,95366.00
2022-10-21T04:23:22.372Z,95360.00
2022-10-21T04:27:25.133Z,95356.00
2022-10-21T04:31:36.001Z,95361.00
2022-10-21T04:35:39.966Z,95355.00
2022-10-21T04:39:42.650Z,95339.00
2022-10-21T04:43:45.344Z,95332.00
2022-10-21T04:47:49.391Z,95326.00
2022-10-21T04:51:52.106Z,95313.00
2022-10-21T04:55:54.838Z,95306.00
2022-10-21T04:59:57.533Z,95307.00
2022-10-21T05:04:01.601Z,95304.00
2022-10-21T05:08:06.998Z,95291.00
2022-10-21T05:12:13.299Z,95284.00
2022-10-21T05:16:16.083Z,95280.00
2022-10-21T05:20:20.202Z,95284.00
2022-10-21T05:24:22.884Z,95280.00
2022-10-21T05:28:26.209Z,95284.00
2022-10-21T05:32:28.943Z,95294.00
2022-10-21T05:36:32.957Z,95283.00
2022-10-21T05:40:35.876Z,95293.00
2022-10-21T05:44:38.578Z,95293.00
2022-10-21T05:48:41.304Z,95286.00
2022-10-21T05:52:45.439Z,95268.00
2022-10-21T05:56:48.910Z,95277.00
2022-10-21T06:00:51.795Z,95287.00
2022-10-21T06:04:54.496Z,95271.00
2022-10-21T06:08:58.731Z,95271.00
2022-10-21T06:13:01.527Z,95284.00
2022-10-21T06:17:04.504Z,95293.00
2022-10-21T06:21:07.863Z,95291.00
2022-10-21T06:25:11.928Z,95296.00
2022-10-21T06:29:15.803Z,95293.00
2022-10-21T06:33:21.126Z,95293.00
2022-10-21T06:37:26.060Z,95291.00
2022-10-21T06:41:30.171Z,95276.00
2022-10-21T06:45:32.882Z,95275.00
2022-10-21T06:49:35.610Z,95254.00
2022-10-21T06:53:39.453Z,95262.00
2022-10-21T06:57:43.837Z,95270.00
2022-10-21T07:01:59.780Z,95260.00
2022-10-21T07:06:03.632Z,95251.00
2022-10-21T07:10:06.742Z,95259.00
2022-10-21T07:14:12.023Z,95249.00
2022-10-21T07:18:14.799Z,95251.00
2022-10-21T07:22:17.880Z,95237.00
2022-10-21T07:26:21.920Z,95239.00
2022-10-21T07:30:26.011Z,95234.00
2022-10-21T07:34:28.880Z,95234.00
2022-10-21T07:38:31.659Z,95233.00
2022-10-21T07:42:34.505Z,95221.00
2022-10-21T07:46:40.723Z,95222.00
2022-10-21T07:50:43.414Z,95219.00
2022-10-21T07:54:46.147Z,95226.00
2022-10-21T07:58:49.003Z,95226.00
2022-10-21T08:02:56.267Z,95228.00
2022-10-21T08:06:59.134Z,95229.00
2022-10-21T08:11:02.291Z,95225.00
2022-10-21T08:15:05.707Z,95215.00
2022-10-21T08:19:10.339Z,95219.00
2022-10-21T08:23:14.850Z,95222.00
2022-10-21T08:27:17.679Z,95229.00
2022-10-21T08:31:22.778Z,95229.00
2022-10-21T08:35:27.439Z,95226.00
2022-10-21T08:39:30.181Z,95227.00
2022-10-21T08:43:35.050Z,95233.00
2022-10-21T08:47:45.180Z,95229.00
2022-10-21T08:51:55.079Z,95230.00
2022-10-21T08:56:04.599Z,95233.00
2022-10-21T09:00:15.023Z,95232.00
2022-10-21T09:04:28.207Z,95238.00
2022-10-21T09:08:38.763Z,95253.00
2022-10-21T09:12:51.694Z,95253.00
2022-10-21T09:17:03.176Z,95254.00
2022-10-21T09:21:14.560Z,95262.00
2022-10-21T09:25:22.488Z,95284.00
2022-10-21T09:29:29.684Z,95291.00
2022-10-21T09:33:34.767Z,95321.00
2022-10-21T09:37:42.710Z,95384.00
2022-10-21T09:41:55.432Z,95409.00
2022-10-21T09:46:01.039Z,95399.00
2022-10-21T09:50:09.817Z,95426.00
2022-10-21T09:54:15.946Z,95400.00
2022-10-21T09:58:27.747Z,95415.00
2022-10-21T10:02:34.380Z,95409.00
2022-10-21T10:06:39.333Z,95426.00
2022-10-21T10:10:42.152Z,95422.00
2022-10-21T10:14:47.587Z,95422.00
2022-10-21T10:18:51.322Z,95429.00
2022-10-21T10:23:19.516Z,95439.00
2022-10-21T10:27:26.517Z,95448.00
2022-10-21T10:31:34.679Z,95448.00
2022-10-21T10:35:38.919Z,95436.00
2022-10-21T10:39:42.169Z,95406.00
2022-10-21T10:43:46.838Z,95431.00
2022-10-21T10:47:55.922Z,95408.00
2022-10-21T10:52:21.123Z,95445.00
2022-10-21T10:56:27.138Z,95425.00
2022-10-21T11:00:34.306Z,95453.00
2022-10-21T11:04:41.204Z,95481.00
2022-10-21T11:08:48.699Z,95474.00
2022-10-21T11:12:51.481Z,95494.00
2022-10-21T11:17:05.183Z,95509.00
2022-10-21T11:21:19.491Z,95506.00
2022-10-21T11:25:25.791Z,95501.00
2022-10-21T11:29:41.712Z,95497.00
2022-10-21T11:33:50.765Z,95509.00
2022-10-21T11:38:14.577Z,95511.00
2022-10-21T11:42:24.183Z,95498.00
2022-10-21T11:46:40.144Z,95489.00
2022-10-21T11:50:49.477Z,95490.00
2022-10-21T11:55:14.577Z,95481.00
2022-10-21T11:59:28.653Z,95465.00
2022-10-21T12:03:52.278Z,95479.00
2022-10-21T12:08:06.709Z,95478.00
2022-10-21T12:12:14.148Z,95485.00
2022-10-21T12:16:20.831Z,95486.00
2022-10-21T12:20:26.881Z,95478.00
2022-10-21T12:24:44.307Z,95476.00
2022-10-21T12:28:56.485Z,95483.00
2022-10-21T12:33:15.540Z,95473.00
2022-10-21T12:37:46.560Z,95481.00
2022-10-21T12:41:49.496Z,95482.00
2022-10-21T12:46:10.114Z,95486.00
2022-10-21T12:50:29.617Z,95478.00
2022-10-21T12:54:41.839Z,95488.00
2022-10-21T12:58:46.447Z,95485.00
2022-10-21T13:03:02.687Z,95480.00
2022-10-21T13:07:06.408Z,95486.00
2022-10-21T13:11:22.791Z,95481.00
2022-10-21T13:15:47.769Z,95489.00
2022-10-21T13:19:53.851Z,95490.00
2022-10-21T13:23:59.176Z,95488.00
2022-10-21T13:28:06.368Z,95488.00
2022-10-21T13:32:22.195Z,95482.00
2022-10-21T13:36:39.519Z,95492.00
2022-10-21T13:40:48.433Z,95496.00
2022-10-21T13:44:53.675Z,95496.00
2022-10-21T13:48:59.589Z,95500.00
2022-10-21T13:53:22.259Z,95505.00
2022-10-21T13:57:28.663Z,95495.00
2022-10-21T14:01:45.180Z,95486.00
2022-10-21T14:05:51.179Z,95490.00
2022-10-21T14:09:57.963Z,95486.00
2022-10-21T14:14:06.678Z,95483.00
2022-10-21T14:18:09.692Z,95478.00
2022-10-21T14:22:20.179Z,95475.00
2022-10-21T14:26:26.797Z,95472.00
2022-10-21T14:30:33.401Z,95475.00
2022-10-21T14:34:37.154Z,95484.00
2022-10-21T14:38:43.247Z,95478.00
2022-10-21T14:42:50.970Z,95478.00
2022-10-21T14:46:56.314Z,95474.00
2022-10-21T14:51:01.365Z,95477.00
2022-10-21T14:55:09.257Z,95478.00
2022-10-21T14:59:23.412Z,95492.00
2022-10-21T15:03:40.733Z,95494.00
2022-10-21T15:07:43.432Z,95482.00
2022-10-21T15:11:47.596Z,95491.00
2022-10-21T15:15:54.457Z,95498.00
2022-10-21T15:19:57.453Z,95497.00
2022-10-21T15:24:00.858Z,95492.00
2022-10-21T15:28:11.074Z,95483.00
2022-10-21T15:32:19.258Z,95476.00
2022-10-21T15:36:22.424Z,95483.00
2022-10-21T15:40:25.118Z,95476.00
2022-10-21T15:44:29.979Z,95483.00
2022-10-21T15:48:34.081Z,95485.00
2022-10-21T15:52:36.846Z,95477.00
2022-10-21T15:56:40.222Z,95470.00
2022-10-21T16:00:43.070Z,95481.00
2022-10-21T16:04:47.294Z,95472.00
2022-10-21T16:08:51.624Z,95464.00
2022-10-21T16:12:55.568Z,95479.00
2022-10-21T16:16:58.985Z,95480.00
2022-10-21T16:21:03.039Z,95473.00
2022-10-21T16:25:06.568Z,95468.00
2022-10-21T16:29:11.688Z,95487.00
2022-10-21T16:33:14.445Z,95483.00
2022-10-21T16:37:24.475Z,95481.00
2022-10-21T16:41:28.690Z,95478.00
2022-10-21T16:45:33.501Z,95491.00
2022-10-21T16:49:36.255Z,95492.00
2022-10-21T16:53:40.632Z,95489.00
2022-10-21T16:57:43.507Z,95488.00
2022-10-21T17:01:46.242Z,95491.00
2022-10-21T17:05:50.268Z,95487.00
2022-10-21T17:09:54.319Z,95483.00
2022-10-21T17:13:57.081Z,95469.00
2022-10-21T17:18:00.524Z,95463.00
2022-10-21T17:22:03.234Z,95477.00
2022-10-21T17:26:07.388Z,95470.00
2022-10-21T17:30:12.187Z,95468.00
2022-10-21T17:34:26.614Z,95463.00
2022-10-21T17:38:29.294Z,95465.00
2022-10-21T17:42:33.350Z,95461.00
2022-10-21T17:46:36.067Z,95465.00
2022-10-21T17:50:38.889Z,95463.00
2022-10-21T17:54:41.760Z,95463.00
2022-10-21T17:58:46.018Z,95468.00
2022-10-21T18:02:48.746Z,95478.00
2022-10-21T18:06:51.437Z,95483.00
2022-10-21T18:10:55.360Z,95466.00
2022-10-21T18:14:59.603Z,95453.00
2022-10-21T18:19:03.190Z,95451.00
2022-10-21T18:23:06.240Z,95447.00
2022-10-21T18:27:09.139Z,95439.00
2022-10-21T18:31:13.419Z,95429.00
2022-10-21T18:35:16.513Z,95425.00
2022-10-21T18:39:19.794Z,95423.00
2022-10-21T18:43:22.465Z,95422.00
2022-10-21T18:47:27.976Z,95420.00
2022-10-21T18:51:30.746Z,95428.00
2022-10-21T18:55:33.409Z,95423.00
2022-10-21T18:59:36.560Z,95421.00
2022-10-21T19:03:40.697Z,95422.00
2022-10-21T19:07:43.415Z,95415.00
2022-10-21T19:11:46.571Z,95418.00
2022-10-21T19:15:49.259Z,95413.00
2022-10-21T19:19:53.318Z,95413.00
2022-10-21T19:23:59.787Z,95425.00
2022-10-21T19:28:02.569Z,95422.00
2022-10-21T19:32:05.418Z,95422.00
2022-10-21T19:36:11.225Z,95422.00
2022-10-21T19:40:13.964Z,95424.00
2022-10-21T19:44:16.645Z,95429.00
2022-10-21T19:48:19.540Z,95433.00
2022-10-21T19:52:23.546Z,95427.00
2022-10-21T19:56:30.761Z,95424.00
2022-10-21T20:00:35.052Z,95430.00
2022-10-21T20:04:37.779Z,95434.00
2022-10-21T20:08:42.542Z,95401.00
2022-10-21T20:12:45.284Z,95379.00
2022-10-21T20:16:50.659Z,95380.00
2022-10-21T20:20:53.592Z,95369.00
2022-10-21T20:24:57.660Z,95389.00
2022-10-21T20:29:01.951Z,95380.00
2022-10-21T20:33:04.911Z,95367.00
2022-10-21T20:37:07.595Z,95369.00
2022-10-21T20:41:14.434Z,95374.00
2022-10-21T20:45:17.142Z,95377.00
2022-10-21T20:49:19.870Z,95372.00
2022-10-21T20:53:22.617Z,95382.00
2022-10-21T20:57:26.731Z,95384.00
2022-10-21T21:01:32.075Z,95383.00
2022-10-21T21:05:38.848Z,95377.00
2022-10-21T21:10:01.792Z,95373.00
2022-10-21T21:14:06.339Z,95379.00
2022-10-21T21:18:11.480Z,95384.00
2022-10-21T21:22:14.184Z,95380.00
2022-10-21T21:26:19.942Z,95372.00
2022-10-21T21:30:24.100Z,95370.00
2022-10-21T21:34:26.826Z,95372.00
2022-10-21T21:38:29.754Z,95382.00
2022-10-21T21:42:32.578Z,95385.00
2022-10-21T21:46:36.612Z,95387.00
2022-10-21T21:50:39.322Z,95401.00
2022-10-21T21:54:42.016Z,95404.00
2022-10-21T21:58:44.715Z,95407.00
2022-10-21T22:02:48.774Z,95419.00
2022-10-21T22:06:51.496Z,95416.00
2022-10-21T22:10:54.174Z,95422.00
2022-10-21T22:14:56.889Z,95415.00
2022-10-21T22:19:01.651Z,95414.00
2022-10-21T22:23:04.335Z,95412.00
2022-10-21T22:27:07.076Z,95418.00
2022-10-21T22:31:12.547Z,95411.00
2022-10-21T22:35:16.615Z,95408.00
2022-10-21T22:39:19.292Z,95398.00
2022-10-21T22:43:22.015Z,95393.00
2022-10-21T22:47:24.914Z,95385.00
2022-10-21T22:51:29.008Z,95377.00
2022-10-21T22:55:31.696Z,95379.00
2022-10-21T22:59:35.395Z,95375.00
2022-10-21T23:03:38.274Z,95374.00
2022-10-21T23:07:42.428Z,95381.00
2022-10-21T23:11:47.041Z,95369.00
2022-10-21T23:15:49.677Z,95378.00
2022-10-21T23:19:52.458Z,95379.00
2022-10-21T23:23:56.643Z,95387.00
2022-10-21T23:27:59.353Z,95392.00
2022-10-21T23:32:02.147Z,95392.00
2022-10-21T23:36:05.308Z,95382.00
2022-10-21T23:40:10.935Z,95389.00
2022-10-21T23:44:13.749Z,95383.00
2022-10-21T23:48:16.454Z,95370.00
2022-10-21T23:52:19.112Z,95385.00
2022-10-21T23:56:23.191Z,95390.00
